sensor_id;sensor_type;location;lat;lon;timestamp;temperature;humidity
77100;SHT31;66602;48.922;2.414;2023-05-16T00:01:14;7.12;91.63
77100;SHT31;66602;48.922;2.414;2023-05-16T00:03:41;7.13;91.86
77100;SHT31;66602;48.922;2.414;2023-05-16T00:06:07;7.15;91.48
77100;SHT31;66602;48.922;2.414;2023-05-16T00:08:33;7.09;91.55
77100;SHT31;66602;48.922;2.414;2023-05-16T00:10:59;7.07;91.64
77100;SHT31;66602;48.922;2.414;2023-05-16T00:13:24;7.03;91.82
77100;SHT31;66602;48.922;2.414;2023-05-16T00:15:53;6.99;91.60
77100;SHT31;66602;48.922;2.414;2023-05-16T00:18:20;6.96;91.69
77100;SHT31;66602;48.922;2.414;2023-05-16T00:20:47;6.96;91.61
77100;SHT31;66602;48.922;2.414;2023-05-16T00:23:13;6.97;91.70
77100;SHT31;66602;48.922;2.414;2023-05-16T00:25:39;6.96;91.46
77100;SHT31;66602;48.922;2.414;2023-05-16T00:28:05;6.95;91.52
77100;SHT31;66602;48.922;2.414;2023-05-16T00:30:31;6.88;91.47
77100;SHT31;66602;48.922;2.414;2023-05-16T00:32:56;6.81;91.88
77100;SHT31;66602;48.922;2.414;2023-05-16T00:35:22;6.79;92.18
77100;SHT31;66602;48.922;2.414;2023-05-16T00:37:49;6.75;92.12
77100;SHT31;66602;48.922;2.414;2023-05-16T00:40:15;6.69;92.32
77100;SHT31;66602;48.922;2.414;2023-05-16T00:42:41;6.69;92.59
77100;SHT31;66602;48.922;2.414;2023-05-16T00:45:07;6.65;92.42
77100;SHT31;66602;48.922;2.414;2023-05-16T00:47:32;6.67;92.53
77100;SHT31;66602;48.922;2.414;2023-05-16T00:49:58;6.65;92.15
77100;SHT31;66602;48.922;2.414;2023-05-16T00:52:24;6.56;92.21
77100;SHT31;66602;48.922;2.414;2023-05-16T00:54:51;6.54;92.64
77100;SHT31;66602;48.922;2.414;2023-05-16T00:57:16;6.54;92.70
77100;SHT31;66602;48.922;2.414;2023-05-16T00:59:44;6.54;92.64
77100;SHT31;66602;48.922;2.414;2023-05-16T01:02:10;6.48;92.66
77100;SHT31;66602;48.922;2.414;2023-05-16T01:04:37;6.47;92.80
77100;SHT31;66602;48.922;2.414;2023-05-16T01:07:03;6.42;92.81
77100;SHT31;66602;48.922;2.414;2023-05-16T01:09:28;6.41;92.86
77100;SHT31;66602;48.922;2.414;2023-05-16T01:12:06;6.28;92.57
77100;SHT31;66602;48.922;2.414;2023-05-16T01:17:43;6.24;93.12
77100;SHT31;66602;48.922;2.414;2023-05-16T01:20:56;6.16;93.29
77100;SHT31;66602;48.922;2.414;2023-05-16T01:26:07;6.17;93.33
77100;SHT31;66602;48.922;2.414;2023-05-16T01:28:33;6.20;93.35
77100;SHT31;66602;48.922;2.414;2023-05-16T01:30:59;6.31;93.27
77100;SHT31;66602;48.922;2.414;2023-05-16T01:33:24;6.25;92.85
77100;SHT31;66602;48.922;2.414;2023-05-16T01:35:57;6.25;92.79
77100;SHT31;66602;48.922;2.414;2023-05-16T01:38:26;6.24;92.79
77100;SHT31;66602;48.922;2.414;2023-05-16T01:43:42;6.18;92.59
77100;SHT31;66602;48.922;2.414;2023-05-16T01:46:17;6.11;92.95
77100;SHT31;66602;48.922;2.414;2023-05-16T01:48:53;6.09;92.96
77100;SHT31;66602;48.922;2.414;2023-05-16T01:51:27;6.07;93.34
77100;SHT31;66602;48.922;2.414;2023-05-16T01:53:58;6.06;93.26
77100;SHT31;66602;48.922;2.414;2023-05-16T01:56:26;6.04;93.25
77100;SHT31;66602;48.922;2.414;2023-05-16T01:58:54;6.09;93.33
77100;SHT31;66602;48.922;2.414;2023-05-16T02:01:20;6.02;93.05
77100;SHT31;66602;48.922;2.414;2023-05-16T02:03:46;5.83;92.66
77100;SHT31;66602;48.922;2.414;2023-05-16T02:06:11;5.70;92.76
77100;SHT31;66602;48.922;2.414;2023-05-16T02:08:37;5.58;93.17
77100;SHT31;66602;48.922;2.414;2023-05-16T02:11:02;5.55;93.67
77100;SHT31;66602;48.922;2.414;2023-05-16T02:13:28;5.49;93.92
77100;SHT31;66602;48.922;2.414;2023-05-16T02:15:53;5.49;94.23
77100;SHT31;66602;48.922;2.414;2023-05-16T02:18:18;5.45;94.28
77100;SHT31;66602;48.922;2.414;2023-05-16T02:20:44;5.51;94.63
77100;SHT31;66602;48.922;2.414;2023-05-16T02:23:10;5.66;95.04
77100;SHT31;66602;48.922;2.414;2023-05-16T02:25:35;5.69;94.79
77100;SHT31;66602;48.922;2.414;2023-05-16T02:28:01;5.72;94.73
77100;SHT31;66602;48.922;2.414;2023-05-16T02:30:26;5.77;94.76
77100;SHT31;66602;48.922;2.414;2023-05-16T02:32:52;5.82;94.62
77100;SHT31;66602;48.922;2.414;2023-05-16T02:35:18;5.87;94.53
77100;SHT31;66602;48.922;2.414;2023-05-16T02:37:43;5.96;93.87
77100;SHT31;66602;48.922;2.414;2023-05-16T02:40:09;5.93;93.65
77100;SHT31;66602;48.922;2.414;2023-05-16T02:42:35;5.92;93.58
77100;SHT31;66602;48.922;2.414;2023-05-16T02:45:00;5.99;93.73
77100;SHT31;66602;48.922;2.414;2023-05-16T02:47:26;6.04;93.37
77100;SHT31;66602;48.922;2.414;2023-05-16T02:49:51;6.07;93.06
77100;SHT31;66602;48.922;2.414;2023-05-16T02:52:17;6.09;92.92
77100;SHT31;66602;48.922;2.414;2023-05-16T02:54:43;6.10;92.82
77100;SHT31;66602;48.922;2.414;2023-05-16T02:57:09;6.11;92.55
77100;SHT31;66602;48.922;2.414;2023-05-16T02:59:34;6.04;92.57
77100;SHT31;66602;48.922;2.414;2023-05-16T03:02:00;5.99;92.57
77100;SHT31;66602;48.922;2.414;2023-05-16T03:04:26;5.96;92.75
77100;SHT31;66602;48.922;2.414;2023-05-16T03:06:51;5.94;92.97
77100;SHT31;66602;48.922;2.414;2023-05-16T03:09:17;5.93;92.93
77100;SHT31;66602;48.922;2.414;2023-05-16T03:11:44;5.97;93.13
77100;SHT31;66602;48.922;2.414;2023-05-16T03:14:09;5.92;92.76
77100;SHT31;66602;48.922;2.414;2023-05-16T03:16:36;5.76;92.71
77100;SHT31;66602;48.922;2.414;2023-05-16T03:19:03;5.67;93.17
77100;SHT31;66602;48.922;2.414;2023-05-16T03:21:29;5.66;93.65
77100;SHT31;66602;48.922;2.414;2023-05-16T03:23:54;5.72;94.01
77100;SHT31;66602;48.922;2.414;2023-05-16T03:26:20;5.72;93.82
77100;SHT31;66602;48.922;2.414;2023-05-16T03:28:47;5.70;93.73
77100;SHT31;66602;48.922;2.414;2023-05-16T03:31:13;5.60;93.71
77100;SHT31;66602;48.922;2.414;2023-05-16T03:33:38;5.70;93.91
77100;SHT31;66602;48.922;2.414;2023-05-16T03:36:04;5.66;93.62
77100;SHT31;66602;48.922;2.414;2023-05-16T03:38:29;5.75;93.84
77100;SHT31;66602;48.922;2.414;2023-05-16T03:40:55;5.80;93.67
77100;SHT31;66602;48.922;2.414;2023-05-16T03:43:20;5.82;93.63
77100;SHT31;66602;48.922;2.414;2023-05-16T03:45:46;5.80;93.51
77100;SHT31;66602;48.922;2.414;2023-05-16T03:48:11;5.80;93.59
77100;SHT31;66602;48.922;2.414;2023-05-16T03:50:37;5.87;93.08
77100;SHT31;66602;48.922;2.414;2023-05-16T03:53:02;5.93;93.07
77100;SHT31;66602;48.922;2.414;2023-05-16T03:55:28;5.86;92.87
77100;SHT31;66602;48.922;2.414;2023-05-16T03:57:55;5.85;93.03
77100;SHT31;66602;48.922;2.414;2023-05-16T04:00:21;5.79;93.01
77100;SHT31;66602;48.922;2.414;2023-05-16T04:02:46;5.73;93.24
77100;SHT31;66602;48.922;2.414;2023-05-16T04:05:12;5.70;93.46
77100;SHT31;66602;48.922;2.414;2023-05-16T04:07:38;5.62;93.49
77100;SHT31;66602;48.922;2.414;2023-05-16T04:10:04;5.62;94.03
77100;SHT31;66602;48.922;2.414;2023-05-16T04:12:30;5.67;94.32
77100;SHT31;66602;48.922;2.414;2023-05-16T04:14:56;5.70;93.87
77100;SHT31;66602;48.922;2.414;2023-05-16T04:17:21;5.75;93.92
77100;SHT31;66602;48.922;2.414;2023-05-16T04:19:47;5.80;93.69
77100;SHT31;66602;48.922;2.414;2023-05-16T04:22:12;5.85;93.24
77100;SHT31;66602;48.922;2.414;2023-05-16T04:24:38;5.82;93.10
77100;SHT31;66602;48.922;2.414;2023-05-16T04:27:04;5.87;93.04
77100;SHT31;66602;48.922;2.414;2023-05-16T04:29:32;5.85;92.86
77100;SHT31;66602;48.922;2.414;2023-05-16T04:31:58;5.86;93.25
77100;SHT31;66602;48.922;2.414;2023-05-16T04:34:23;5.85;93.35
77100;SHT31;66602;48.922;2.414;2023-05-16T04:36:54;5.85;93.14
77100;SHT31;66602;48.922;2.414;2023-05-16T04:39:20;5.83;93.21
77100;SHT31;66602;48.922;2.414;2023-05-16T04:41:46;5.86;93.17
77100;SHT31;66602;48.922;2.414;2023-05-16T04:44:11;5.90;93.18
77100;SHT31;66602;48.922;2.414;2023-05-16T04:46:37;5.94;92.94
77100;SHT31;66602;48.922;2.414;2023-05-16T04:49:02;5.94;92.73
77100;SHT31;66602;48.922;2.414;2023-05-16T04:51:28;5.89;92.77
77100;SHT31;66602;48.922;2.414;2023-05-16T04:53:53;5.86;93.08
77100;SHT31;66602;48.922;2.414;2023-05-16T04:56:19;5.94;93.15
77100;SHT31;66602;48.922;2.414;2023-05-16T04:58:45;6.07;92.96
77100;SHT31;66602;48.922;2.414;2023-05-16T05:01:10;6.16;92.61
77100;SHT31;66602;48.922;2.414;2023-05-16T05:03:36;6.30;92.72
77100;SHT31;66602;48.922;2.414;2023-05-16T05:06:02;6.40;91.67
77100;SHT31;66602;48.922;2.414;2023-05-16T05:08:27;6.51;91.04
77100;SHT31;66602;48.922;2.414;2023-05-16T05:10:54;6.56;90.97
77100;SHT31;66602;48.922;2.414;2023-05-16T05:13:20;6.65;90.60
77100;SHT31;66602;48.922;2.414;2023-05-16T05:15:46;6.69;90.43
77100;SHT31;66602;48.922;2.414;2023-05-16T05:18:11;6.76;89.97
77100;SHT31;66602;48.922;2.414;2023-05-16T05:20:37;6.81;89.69
77100;SHT31;66602;48.922;2.414;2023-05-16T05:23:02;6.86;89.60
77100;SHT31;66602;48.922;2.414;2023-05-16T05:25:28;6.91;89.47
77100;SHT31;66602;48.922;2.414;2023-05-16T05:27:53;6.96;89.19
77100;SHT31;66602;48.922;2.414;2023-05-16T05:30:19;7.03;88.91
77100;SHT31;66602;48.922;2.414;2023-05-16T05:32:44;7.09;89.19
77100;SHT31;66602;48.922;2.414;2023-05-16T05:35:10;7.16;88.42
77100;SHT31;66602;48.922;2.414;2023-05-16T05:37:35;7.23;88.00
77100;SHT31;66602;48.922;2.414;2023-05-16T05:40:01;7.28;88.05
77100;SHT31;66602;48.922;2.414;2023-05-16T05:42:27;7.31;87.90
77100;SHT31;66602;48.922;2.414;2023-05-16T05:44:52;7.33;88.53
77100;SHT31;66602;48.922;2.414;2023-05-16T05:47:18;7.38;87.97
77100;SHT31;66602;48.922;2.414;2023-05-16T05:49:43;7.46;87.62
77100;SHT31;66602;48.922;2.414;2023-05-16T05:52:09;7.53;87.44
77100;SHT31;66602;48.922;2.414;2023-05-16T05:54:35;7.63;86.84
77100;SHT31;66602;48.922;2.414;2023-05-16T05:57:01;7.73;85.98
77100;SHT31;66602;48.922;2.414;2023-05-16T05:59:26;7.79;86.72
77100;SHT31;66602;48.922;2.414;2023-05-16T06:01:52;7.86;86.20
77100;SHT31;66602;48.922;2.414;2023-05-16T06:04:18;7.92;85.88
77100;SHT31;66602;48.922;2.414;2023-05-16T06:06:43;8.02;84.53
77100;SHT31;66602;48.922;2.414;2023-05-16T06:09:09;8.13;84.43
77100;SHT31;66602;48.922;2.414;2023-05-16T06:11:35;8.22;84.40
77100;SHT31;66602;48.922;2.414;2023-05-16T06:14:00;8.28;83.80
77100;SHT31;66602;48.922;2.414;2023-05-16T06:16:26;8.35;82.83
77100;SHT31;66602;48.922;2.414;2023-05-16T06:18:51;8.37;83.52
77100;SHT31;66602;48.922;2.414;2023-05-16T06:21:17;8.43;83.99
77100;SHT31;66602;48.922;2.414;2023-05-16T06:23:42;8.50;83.49
77100;SHT31;66602;48.922;2.414;2023-05-16T06:26:08;8.64;82.22
77100;SHT31;66602;48.922;2.414;2023-05-16T06:28:33;8.74;83.02
77100;SHT31;66602;48.922;2.414;2023-05-16T06:30:59;8.83;81.19
77100;SHT31;66602;48.922;2.414;2023-05-16T06:33:24;8.89;81.04
77100;SHT31;66602;48.922;2.414;2023-05-16T06:35:51;8.95;81.73
77100;SHT31;66602;48.922;2.414;2023-05-16T06:38:17;9.01;80.28
77100;SHT31;66602;48.922;2.414;2023-05-16T06:40:43;9.07;79.99
77100;SHT31;66602;48.922;2.414;2023-05-16T06:43:09;9.16;80.69
77100;SHT31;66602;48.922;2.414;2023-05-16T06:45:36;9.29;80.86
77100;SHT31;66602;48.922;2.414;2023-05-16T06:48:06;9.38;78.73
77100;SHT31;66602;48.922;2.414;2023-05-16T06:50:32;9.49;78.92
77100;SHT31;66602;48.922;2.414;2023-05-16T06:52:59;10.15;77.67
77100;SHT31;66602;48.922;2.414;2023-05-16T06:55:25;11.71;72.57
77100;SHT31;66602;48.922;2.414;2023-05-16T06:57:50;12.68;68.04
77100;SHT31;66602;48.922;2.414;2023-05-16T07:00:16;13.19;66.52
77100;SHT31;66602;48.922;2.414;2023-05-16T07:02:42;13.41;64.96
77100;SHT31;66602;48.922;2.414;2023-05-16T07:05:07;13.76;64.94
77100;SHT31;66602;48.922;2.414;2023-05-16T07:07:34;13.83;63.02
77100;SHT31;66602;48.922;2.414;2023-05-16T07:09:59;13.90;64.38
77100;SHT31;66602;48.922;2.414;2023-05-16T07:12:25;14.46;61.13
77100;SHT31;66602;48.922;2.414;2023-05-16T07:14:51;15.47;58.82
77100;SHT31;66602;48.922;2.414;2023-05-16T07:17:16;16.84;54.78
77100;SHT31;66602;48.922;2.414;2023-05-16T07:19:42;17.10;52.79
77100;SHT31;66602;48.922;2.414;2023-05-16T07:22:07;18.20;50.51
77100;SHT31;66602;48.922;2.414;2023-05-16T07:24:33;18.48;48.69
77100;SHT31;66602;48.922;2.414;2023-05-16T07:26:58;16.83;53.54
77100;SHT31;66602;48.922;2.414;2023-05-16T07:29:24;17.29;52.44
77100;SHT31;66602;48.922;2.414;2023-05-16T07:31:49;16.74;53.23
77100;SHT31;66602;48.922;2.414;2023-05-16T07:34:15;17.61;50.04
77100;SHT31;66602;48.922;2.414;2023-05-16T07:36:41;18.41;48.89
77100;SHT31;66602;48.922;2.414;2023-05-16T07:39:06;18.96;48.23
77100;SHT31;66602;48.922;2.414;2023-05-16T07:41:32;17.97;50.22
77100;SHT31;66602;48.922;2.414;2023-05-16T07:43:57;16.57;53.40
77100;SHT31;66602;48.922;2.414;2023-05-16T07:46:23;18.43;51.56
77100;SHT31;66602;48.922;2.414;2023-05-16T07:48:49;18.65;47.23
77100;SHT31;66602;48.922;2.414;2023-05-16T07:51:15;18.99;46.61
77100;SHT31;66602;48.922;2.414;2023-05-16T07:53:40;20.46;43.86
77100;SHT31;66602;48.922;2.414;2023-05-16T07:56:06;20.86;43.68
77100;SHT31;66602;48.922;2.414;2023-05-16T07:58:32;21.51;42.70
77100;SHT31;66602;48.922;2.414;2023-05-16T08:00:58;21.66;38.81
77100;SHT31;66602;48.922;2.414;2023-05-16T08:03:23;21.34;42.58
77100;SHT31;66602;48.922;2.414;2023-05-16T08:05:49;21.45;39.24
77100;SHT31;66602;48.922;2.414;2023-05-16T08:08:14;20.81;43.59
77100;SHT31;66602;48.922;2.414;2023-05-16T08:10:40;21.73;40.38
77100;SHT31;66602;48.922;2.414;2023-05-16T08:13:05;21.94;40.07
77100;SHT31;66602;48.922;2.414;2023-05-16T08:15:31;21.62;38.98
77100;SHT31;66602;48.922;2.414;2023-05-16T08:17:57;22.71;37.65
77100;SHT31;66602;48.922;2.414;2023-05-16T08:20:23;23.42;38.58
77100;SHT31;66602;48.922;2.414;2023-05-16T08:22:49;24.62;34.40
77100;SHT31;66602;48.922;2.414;2023-05-16T08:25:15;26.06;33.85
77100;SHT31;66602;48.922;2.414;2023-05-16T08:27:40;24.75;31.71
77100;SHT31;66602;48.922;2.414;2023-05-16T08:30:07;20.73;39.23
77100;SHT31;66602;48.922;2.414;2023-05-16T08:32:33;19.64;40.25
77100;SHT31;66602;48.922;2.414;2023-05-16T08:34:59;17.98;44.98
77100;SHT31;66602;48.922;2.414;2023-05-16T08:37:24;18.49;43.77
77100;SHT31;66602;48.922;2.414;2023-05-16T08:39:50;18.33;45.41
77100;SHT31;66602;48.922;2.414;2023-05-16T08:42:15;18.71;42.89
77100;SHT31;66602;48.922;2.414;2023-05-16T08:44:41;18.14;43.56
77100;SHT31;66602;48.922;2.414;2023-05-16T08:47:11;17.85;46.79
77100;SHT31;66602;48.922;2.414;2023-05-16T08:49:40;19.27;43.56
77100;SHT31;66602;48.922;2.414;2023-05-16T08:52:08;19.65;42.47
77100;SHT31;66602;48.922;2.414;2023-05-16T08:54:34;18.08;43.73
77100;SHT31;66602;48.922;2.414;2023-05-16T08:57:00;19.85;41.57
77100;SHT31;66602;48.922;2.414;2023-05-16T08:59:28;17.28;45.65
77100;SHT31;66602;48.922;2.414;2023-05-16T09:01:54;19.47;41.67
77100;SHT31;66602;48.922;2.414;2023-05-16T09:04:21;20.43;40.56
77100;SHT31;66602;48.922;2.414;2023-05-16T09:06:49;20.91;40.15
77100;SHT31;66602;48.922;2.414;2023-05-16T09:09:15;19.63;41.38
77100;SHT31;66602;48.922;2.414;2023-05-16T09:11:41;18.30;44.95
77100;SHT31;66602;48.922;2.414;2023-05-16T09:14:06;20.66;38.69
77100;SHT31;66602;48.922;2.414;2023-05-16T09:16:32;22.25;36.10
77100;SHT31;66602;48.922;2.414;2023-05-16T09:18:59;23.85;32.73
77100;SHT31;66602;48.922;2.414;2023-05-16T09:21:30;24.93;31.01
77100;SHT31;66602;48.922;2.414;2023-05-16T09:24:08;24.63;31.15
77100;SHT31;66602;48.922;2.414;2023-05-16T09:26:36;24.28;32.59
77100;SHT31;66602;48.922;2.414;2023-05-16T09:29:09;25.23;31.89
77100;SHT31;66602;48.922;2.414;2023-05-16T09:31:35;25.61;29.50
77100;SHT31;66602;48.922;2.414;2023-05-16T09:34:06;25.02;29.00
77100;SHT31;66602;48.922;2.414;2023-05-16T09:36:33;24.48;30.94
77100;SHT31;66602;48.922;2.414;2023-05-16T09:38:59;24.41;30.35
77100;SHT31;66602;48.922;2.414;2023-05-16T09:41:25;25.14;35.07
77100;SHT31;66602;48.922;2.414;2023-05-16T09:43:51;25.31;29.74
77100;SHT31;66602;48.922;2.414;2023-05-16T09:46:16;25.02;29.21
77100;SHT31;66602;48.922;2.414;2023-05-16T09:48:45;25.38;31.71
77100;SHT31;66602;48.922;2.414;2023-05-16T09:51:12;24.05;31.64
77100;SHT31;66602;48.922;2.414;2023-05-16T09:53:38;23.71;32.18
77100;SHT31;66602;48.922;2.414;2023-05-16T09:56:05;21.38;35.88
77100;SHT31;66602;48.922;2.414;2023-05-16T09:58:34;20.25;37.39
77100;SHT31;66602;48.922;2.414;2023-05-16T10:01:00;21.12;35.22
77100;SHT31;66602;48.922;2.414;2023-05-16T10:03:27;22.51;33.46
77100;SHT31;66602;48.922;2.414;2023-05-16T10:05:53;23.75;32.24
77100;SHT31;66602;48.922;2.414;2023-05-16T10:08:20;25.09;32.32
77100;SHT31;66602;48.922;2.414;2023-05-16T10:10:50;25.23;29.49
77100;SHT31;66602;48.922;2.414;2023-05-16T10:13:16;25.42;29.69
77100;SHT31;66602;48.922;2.414;2023-05-16T10:15:44;25.68;30.63
77100;SHT31;66602;48.922;2.414;2023-05-16T10:18:10;25.31;30.76
77100;SHT31;66602;48.922;2.414;2023-05-16T10:20:39;22.99;32.90
77100;SHT31;66602;48.922;2.414;2023-05-16T10:23:06;23.20;33.34
77100;SHT31;66602;48.922;2.414;2023-05-16T10:25:38;23.51;35.06
77100;SHT31;66602;48.922;2.414;2023-05-16T10:28:06;24.62;31.18
77100;SHT31;66602;48.922;2.414;2023-05-16T10:30:33;25.06;31.03
77100;SHT31;66602;48.922;2.414;2023-05-16T10:33:01;25.26;31.77
77100;SHT31;66602;48.922;2.414;2023-05-16T10:35:29;25.75;31.58
77100;SHT31;66602;48.922;2.414;2023-05-16T10:37:55;25.52;33.27
77100;SHT31;66602;48.922;2.414;2023-05-16T10:40:22;25.92;29.50
77100;SHT31;66602;48.922;2.414;2023-05-16T10:43:28;26.81;28.38
77100;SHT31;66602;48.922;2.414;2023-05-16T10:46:08;24.87;30.96
77100;SHT31;66602;48.922;2.414;2023-05-16T10:48:40;21.79;35.18
77100;SHT31;66602;48.922;2.414;2023-05-16T10:53:54;18.65;42.88
77100;SHT31;66602;48.922;2.414;2023-05-16T10:56:24;18.81;41.18
77100;SHT31;66602;48.922;2.414;2023-05-16T10:58:52;21.41;38.12
77100;SHT31;66602;48.922;2.414;2023-05-16T11:01:18;23.77;33.84
77100;SHT31;66602;48.922;2.414;2023-05-16T11:06:30;25.45;34.49
77100;SHT31;66602;48.922;2.414;2023-05-16T11:14:40;24.72;32.25
77100;SHT31;66602;48.922;2.414;2023-05-16T11:19:54;26.13;30.81
77100;SHT31;66602;48.922;2.414;2023-05-16T11:22:29;22.13;34.15
77100;SHT31;66602;48.922;2.414;2023-05-16T11:32:38;21.59;35.88
77100;SHT31;66602;48.922;2.414;2023-05-16T11:35:06;21.62;37.95
77100;SHT31;66602;48.922;2.414;2023-05-16T11:37:33;21.94;35.26
77100;SHT31;66602;48.922;2.414;2023-05-16T11:40:01;20.19;38.10
77100;SHT31;66602;48.922;2.414;2023-05-16T11:42:34;21.15;37.96
77100;SHT31;66602;48.922;2.414;2023-05-16T11:45:07;23.30;38.22
77100;SHT31;66602;48.922;2.414;2023-05-16T11:47:35;24.17;30.65
77100;SHT31;66602;48.922;2.414;2023-05-16T11:50:04;24.24;30.60
77100;SHT31;66602;48.922;2.414;2023-05-16T11:52:30;24.73;30.87
77100;SHT31;66602;48.922;2.414;2023-05-16T11:54:57;24.91;29.50
77100;SHT31;66602;48.922;2.414;2023-05-16T11:57:26;25.54;31.84
77100;SHT31;66602;48.922;2.414;2023-05-16T11:59:52;25.71;29.21
77100;SHT31;66602;48.922;2.414;2023-05-16T12:02:17;22.95;37.59
77100;SHT31;66602;48.922;2.414;2023-05-16T12:04:45;22.60;34.97
77100;SHT31;66602;48.922;2.414;2023-05-16T12:07:11;23.33;33.89
77100;SHT31;66602;48.922;2.414;2023-05-16T12:09:37;24.51;31.33
77100;SHT31;66602;48.922;2.414;2023-05-16T12:12:04;24.58;31.51
77100;SHT31;66602;48.922;2.414;2023-05-16T12:14:29;24.22;29.76
77100;SHT31;66602;48.922;2.414;2023-05-16T12:16:55;23.71;30.88
77100;SHT31;66602;48.922;2.414;2023-05-16T12:19:21;24.21;31.28
77100;SHT31;66602;48.922;2.414;2023-05-16T12:21:47;24.76;31.67
77100;SHT31;66602;48.922;2.414;2023-05-16T12:24:15;24.18;29.93
77100;SHT31;66602;48.922;2.414;2023-05-16T12:26:41;24.15;31.83
77100;SHT31;66602;48.922;2.414;2023-05-16T12:29:09;22.23;35.37
77100;SHT31;66602;48.922;2.414;2023-05-16T12:31:39;22.47;36.83
77100;SHT31;66602;48.922;2.414;2023-05-16T12:34:14;23.84;33.77
77100;SHT31;66602;48.922;2.414;2023-05-16T12:36:40;24.97;32.95
77100;SHT31;66602;48.922;2.414;2023-05-16T12:39:06;22.91;31.62
77100;SHT31;66602;48.922;2.414;2023-05-16T12:41:39;21.65;33.85
77100;SHT31;66602;48.922;2.414;2023-05-16T12:44:13;21.83;33.76
77100;SHT31;66602;48.922;2.414;2023-05-16T12:46:45;22.75;33.21
77100;SHT31;66602;48.922;2.414;2023-05-16T12:49:13;23.38;31.66
77100;SHT31;66602;48.922;2.414;2023-05-16T12:51:39;23.63;31.83
77100;SHT31;66602;48.922;2.414;2023-05-16T12:54:11;24.33;32.29
77100;SHT31;66602;48.922;2.414;2023-05-16T12:56:40;24.28;31.31
77100;SHT31;66602;48.922;2.414;2023-05-16T12:59:08;22.54;34.96
77100;SHT31;66602;48.922;2.414;2023-05-16T13:01:36;23.82;32.22
77100;SHT31;66602;48.922;2.414;2023-05-16T13:04:02;24.31;30.89
77100;SHT31;66602;48.922;2.414;2023-05-16T13:06:28;23.05;32.11
77100;SHT31;66602;48.922;2.414;2023-05-16T13:08:54;23.26;32.26
77100;SHT31;66602;48.922;2.414;2023-05-16T13:11:19;23.33;31.24
77100;SHT31;66602;48.922;2.414;2023-05-16T13:13:45;23.69;29.86
77100;SHT31;66602;48.922;2.414;2023-05-16T13:16:11;24.60;30.95
77100;SHT31;66602;48.922;2.414;2023-05-16T13:18:36;23.29;33.41
77100;SHT31;66602;48.922;2.414;2023-05-16T13:21:02;21.39;34.88
77100;SHT31;66602;48.922;2.414;2023-05-16T13:23:29;19.96;37.62
77100;SHT31;66602;48.922;2.414;2023-05-16T13:25:54;19.05;39.03
77100;SHT31;66602;48.922;2.414;2023-05-16T13:28:20;19.10;39.82
77100;SHT31;66602;48.922;2.414;2023-05-16T13:30:45;19.10;38.98
77100;SHT31;66602;48.922;2.414;2023-05-16T13:33:11;19.10;41.11
77100;SHT31;66602;48.922;2.414;2023-05-16T13:35:36;19.22;40.39
77100;SHT31;66602;48.922;2.414;2023-05-16T13:38:03;19.03;40.18
77100;SHT31;66602;48.922;2.414;2023-05-16T13:40:29;18.40;37.44
77100;SHT31;66602;48.922;2.414;2023-05-16T13:42:54;19.87;36.00
77100;SHT31;66602;48.922;2.414;2023-05-16T13:45:21;21.76;35.55
77100;SHT31;66602;48.922;2.414;2023-05-16T13:47:47;22.94;31.83
77100;SHT31;66602;48.922;2.414;2023-05-16T13:50:12;24.17;30.79
77100;SHT31;66602;48.922;2.414;2023-05-16T13:52:38;23.43;32.02
77100;SHT31;66602;48.922;2.414;2023-05-16T13:55:05;23.74;33.45
77100;SHT31;66602;48.922;2.414;2023-05-16T13:57:31;24.22;31.32
77100;SHT31;66602;48.922;2.414;2023-05-16T13:59:58;24.89;33.14
77100;SHT31;66602;48.922;2.414;2023-05-16T14:02:24;24.24;31.48
77100;SHT31;66602;48.922;2.414;2023-05-16T14:04:51;21.73;36.07
77100;SHT31;66602;48.922;2.414;2023-05-16T14:07:16;21.01;35.92
77100;SHT31;66602;48.922;2.414;2023-05-16T14:09:42;21.10;36.35
77100;SHT31;66602;48.922;2.414;2023-05-16T14:12:08;21.76;35.41
77100;SHT31;66602;48.922;2.414;2023-05-16T14:14:34;22.47;34.95
77100;SHT31;66602;48.922;2.414;2023-05-16T14:17:00;22.43;32.05
77100;SHT31;66602;48.922;2.414;2023-05-16T14:19:25;21.17;34.48
77100;SHT31;66602;48.922;2.414;2023-05-16T14:21:51;19.63;39.07
77100;SHT31;66602;48.922;2.414;2023-05-16T14:24:16;18.59;42.78
77100;SHT31;66602;48.922;2.414;2023-05-16T14:26:42;18.13;41.09
77100;SHT31;66602;48.922;2.414;2023-05-16T14:29:07;18.04;42.21
77100;SHT31;66602;48.922;2.414;2023-05-16T14:31:33;18.37;42.91
77100;SHT31;66602;48.922;2.414;2023-05-16T14:34:01;19.27;42.80
77100;SHT31;66602;48.922;2.414;2023-05-16T14:36:26;19.53;38.34
77100;SHT31;66602;48.922;2.414;2023-05-16T14:38:52;19.47;38.17
77100;SHT31;66602;48.922;2.414;2023-05-16T14:41:17;20.91;37.01
77100;SHT31;66602;48.922;2.414;2023-05-16T14:43:43;22.34;34.62
77100;SHT31;66602;48.922;2.414;2023-05-16T14:46:09;22.12;36.31
77100;SHT31;66602;48.922;2.414;2023-05-16T14:48:35;20.87;37.13
77100;SHT31;66602;48.922;2.414;2023-05-16T14:51:00;19.71;39.81
77100;SHT31;66602;48.922;2.414;2023-05-16T14:53:26;18.86;41.09
77100;SHT31;66602;48.922;2.414;2023-05-16T14:55:52;18.84;42.52
77100;SHT31;66602;48.922;2.414;2023-05-16T14:58:17;19.26;39.10
77100;SHT31;66602;48.922;2.414;2023-05-16T15:00:43;20.24;37.49
77100;SHT31;66602;48.922;2.414;2023-05-16T15:03:08;21.66;36.58
77100;SHT31;66602;48.922;2.414;2023-05-16T15:05:34;21.14;36.19
77100;SHT31;66602;48.922;2.414;2023-05-16T15:07:59;20.36;36.79
77100;SHT31;66602;48.922;2.414;2023-05-16T15:10:25;19.81;39.19
77100;SHT31;66602;48.922;2.414;2023-05-16T15:12:51;20.55;36.99
77100;SHT31;66602;48.922;2.414;2023-05-16T15:15:17;21.03;35.95
77100;SHT31;66602;48.922;2.414;2023-05-16T15:17:44;20.47;36.45
77100;SHT31;66602;48.922;2.414;2023-05-16T15:20:11;19.78;37.15
77100;SHT31;66602;48.922;2.414;2023-05-16T15:22:38;18.95;37.05
77100;SHT31;66602;48.922;2.414;2023-05-16T15:25:04;18.75;40.07
77100;SHT31;66602;48.922;2.414;2023-05-16T15:27:31;19.92;39.19
77100;SHT31;66602;48.922;2.414;2023-05-16T15:29:57;20.56;38.85
77100;SHT31;66602;48.922;2.414;2023-05-16T15:32:23;20.69;37.52
77100;SHT31;66602;48.922;2.414;2023-05-16T15:34:48;21.01;39.46
77100;SHT31;66602;48.922;2.414;2023-05-16T15:37:14;21.54;35.40
77100;SHT31;66602;48.922;2.414;2023-05-16T15:39:40;21.62;35.00
77100;SHT31;66602;48.922;2.414;2023-05-16T15:42:06;20.97;35.39
77100;SHT31;66602;48.922;2.414;2023-05-16T15:44:32;20.84;36.65
77100;SHT31;66602;48.922;2.414;2023-05-16T15:46:58;20.49;37.19
77100;SHT31;66602;48.922;2.414;2023-05-16T15:49:23;20.67;37.31
77100;SHT31;66602;48.922;2.414;2023-05-16T15:51:49;19.82;38.21
77100;SHT31;66602;48.922;2.414;2023-05-16T15:54:15;20.19;37.18
77100;SHT31;66602;48.922;2.414;2023-05-16T15:56:41;20.70;36.93
77100;SHT31;66602;48.922;2.414;2023-05-16T15:59:06;20.64;38.34
77100;SHT31;66602;48.922;2.414;2023-05-16T16:01:32;20.70;36.58
77100;SHT31;66602;48.922;2.414;2023-05-16T16:03:57;19.81;37.61